Cap Roberta — A8MG9 — position and weather

sailwx.info

Track history (hours):
 
Tides and Currents Weather Stations Pressure Air Temp Water Temp Dewpoint Dewpoint Depression Visibility Wind Speed Wind Dir Waves Ship Positions

Cap Roberta

Last reported at 2018-Jun-19 14:46 UTC. Time now 2018-Jun-19 20:07 UTC.
Position N 09°37' W 080°05'.

Length 224 m; draft 10.1 m.

Type: Ship (hazmat cat A). MMSI: 636017361.

Date/timePositionNaut miles runAvg speedWind from/ knotsBaromVisibWave heightAir tempDewpointWater temp
2018-Jun-19 14:46N 09°37' W 080°05'518.9
2018-Jun-19 14:31N 09°36' W 080°00'919.0
2018-Jun-19 14:01N 09°28' W 079°54'612.5
2018-Jun-19 13:30N 09°22' W 079°53'1 1.5
2018-Jun-19 12:59N 09°22' W 079°53'0 0.0
2018-Jun-19 12:29N 09°22' W 079°53'0 0.0
2018-Jun-19 11:59N 09°22' W 079°53'0 0.0
2018-Jun-19 11:29N 09°22' W 079°53'0 0.0
2018-Jun-19 10:59N 09°22' W 079°53'0 0.0
2018-Jun-19 10:28N 09°22' W 079°53'0 0.0
2018-Jun-19 09:58N 09°22' W 079°53'0 0.0
2018-Jun-19 09:28N 09°22' W 079°53'0 0.0
2018-Jun-19 08:58N 09°22' W 079°53'0 0.0
2018-Jun-19 08:30N 09°22' W 079°53'0 0.0
2018-Jun-19 08:00N 09°22' W 079°53'0 0.0
2018-Jun-19 07:30N 09°22' W 079°53'0 0.0
2018-Jun-19 07:00N 09°22' W 079°53'0 0.0
2018-Jun-19 06:30N 09°22' W 079°53'0 0.0
2018-Jun-19 05:59N 09°22' W 079°53'0 0.0
2018-Jun-19 05:29N 09°22' W 079°53'0 0.0
2018-Jun-19 04:59N 09°22' W 079°53'0 0.0
2018-Jun-19 04:29N 09°22' W 079°53'0 0.0
2018-Jun-19 03:59N 09°22' W 079°53'0 0.0
2018-Jun-19 03:28N 09°22' W 079°53'0 0.0
2018-Jun-19 02:58N 09°22' W 079°53'0 0.0
2018-Jun-19 02:28N 09°22' W 079°53'0 0.0
2018-Jun-19 01:58N 09°22' W 079°53'0 0.0
2018-Jun-19 01:30N 09°22' W 079°53'0 0.0
2018-Jun-19 01:00N 09°22' W 079°53'0 0.0
2018-Jun-19 00:30N 09°22' W 079°53'0 0.0
2018-Jun-19 00:00N 09°22' W 079°53'0 0.0
2018-Jun-18 23:30N 09°22' W 079°53'0 0.0
2018-Jun-18 22:59N 09°22' W 079°53'0 0.0
2018-Jun-18 22:29N 09°22' W 079°53'0 0.0
2018-Jun-18 22:00N 09°22' W 079°53'0 0.0
2018-Jun-18 21:30N 09°22' W 079°53'0 0.0
2018-Jun-18 21:00N 09°22' W 079°53'0 0.0
2018-Jun-18 20:29N 09°22' W 079°53'0 0.0
2018-Jun-18 19:59N 09°22' W 079°53'0 0.0
2018-Jun-18 19:29N 09°22' W 079°53'0 0.0
2018-Jun-18 18:59N 09°22' W 079°53'0 0.0
2018-Jun-18 18:29N 09°22' W 079°53'0 0.0
2018-Jun-18 17:58N 09°22' W 079°53'0 0.0
2018-Jun-18 17:28N 09°22' W 079°53'0 0.0
2018-Jun-18 16:58N 09°22' W 079°53'0 0.0
2018-Jun-18 16:28N 09°22' W 079°53'0 0.0
2018-Jun-18 15:55N 09°22' W 079°53'0 0.0
2018-Jun-18 15:30N 09°22' W 079°53'0 0.0
2018-Jun-18 15:00N 09°22' W 079°53'0 0.0
2018-Jun-18 14:30N 09°22' W 079°53'0 0.0
2018-Jun-18 14:00N 09°22' W 079°53'0 0.0
2018-Jun-18 13:29N 09°22' W 079°53'0 0.0
2018-Jun-18 12:59N 09°22' W 079°53'0 0.0
2018-Jun-18 12:29N 09°22' W 079°53'0 0.0
2018-Jun-18 12:00N 09°22' W 079°53'1 2.7
2018-Jun-18 11:30N 09°23' W 079°54'3 6.0
2018-Jun-18 11:00N 09°26' W 079°54'2 3.2
2018-Jun-18 10:30N 09°27' W 079°54'2 4.1
2018-Jun-18 10:00N 09°28' W 079°52'1 1.5
2018-Jun-18 09:29N 09°29' W 079°53'4 7.5
2018-Jun-18 09:00N 09°32' W 079°53'  
2018-Jun-16 01:48N 10°12' W 075°55'514.9
2018-Jun-16 01:30N 10°14' W 075°51'714.3
2018-Jun-16 01:00N 10°17' W 075°45'  
2018-Jun-13 03:04N 25°29' W 079°36'511.7
2018-Jun-13 02:37N 25°34' W 079°37'211.4
2018-Jun-13 02:28N 25°36' W 079°37'511.1
2018-Jun-13 02:00N 25°41' W 079°38'611.1
2018-Jun-13 01:30N 25°47' W 079°38'511.0
2018-Jun-13 01:00N 25°52' W 079°39'613.1
2018-Jun-13 00:30N 25°56' W 079°44'918.8
2018-Jun-13 00:00N 25°60' W 079°54'1019.4
2018-Jun-12 23:30N 26°04' W 080°04'3 6.5
2018-Jun-12 23:00N 26°05' W 080°07'1 1.5
2018-Jun-12 22:24N 26°04' W 080°07'0 0.0
2018-Jun-12 21:54N 26°04' W 080°07'0 0.0
2018-Jun-12 21:30N 26°04' W 080°07'0 0.0
2018-Jun-12 20:59N 26°04' W 080°07'0 0.0
2018-Jun-12 20:26N 26°04' W 080°07'0 0.0
2018-Jun-12 19:56N 26°04' W 080°07'0 0.0
2018-Jun-12 19:29N 26°04' W 080°07'0 0.0
2018-Jun-12 18:59N 26°04' W 080°07'0 0.0
2018-Jun-12 18:28N 26°04' W 080°07'0 0.0
2018-Jun-12 17:55N 26°04' W 080°07'0 0.0
2018-Jun-12 17:22N 26°04' W 080°07'0 0.0
2018-Jun-12 16:49N 26°04' W 080°07'0 0.0
2018-Jun-12 16:30N 26°04' W 080°07'0 0.0
2018-Jun-12 15:57N 26°04' W 080°07'0 0.0
2018-Jun-12 15:24N 26°04' W 080°07'0 0.0
2018-Jun-12 14:48N 26°04' W 080°07'0 0.0
2018-Jun-12 14:30N 26°04' W 080°07'1 1.3
2018-Jun-12 14:00N 26°05' W 080°07'3 5.0
2018-Jun-12 13:30N 26°06' W 080°04'3 5.9
2018-Jun-12 13:00N 26°07' W 080°01'611.6
2018-Jun-12 12:30N 26°12' W 079°58'816.1
2018-Jun-12 12:00N 26°20' W 079°56'815.7
2018-Jun-12 11:30N 26°28' W 079°56'815.7
2018-Jun-12 11:00N 26°35' W 079°55'1016.8
2018-Jun-12 10:23N 26°46' W 079°55'716.8
2018-Jun-12 09:58N 26°53' W 079°55'816.5
2018-Jun-12 09:30N 27°00' W 079°54'29111.9
2018-Jun-11 09:09N 31°49' W 080°34'215.5
2018-Jun-11 09:00N 31°51' W 080°36'815.3
2018-Jun-11 08:29N 31°57' W 080°42'613.2
2018-Jun-11 08:01N 32°01' W 080°48'611.1
2018-Jun-11 07:30N 32°02' W 080°54'510.8
2018-Jun-11 07:00N 32°05' W 080°59'4 8.1
2018-Jun-11 06:30N 32°05' W 081°04'3 5.8
2018-Jun-11 06:00N 32°06' W 081°07'1 2.6
2018-Jun-11 05:29N 32°07' W 081°08'0 0.0
2018-Jun-11 04:59N 32°07' W 081°08'0 0.0
2018-Jun-11 04:29N 32°07' W 081°08'0 0.0
2018-Jun-11 03:58N 32°07' W 081°08'0 0.0
2018-Jun-11 03:28N 32°07' W 081°08'0 0.0
2018-Jun-11 02:58N 32°07' W 081°08'0 0.0
2018-Jun-11 02:22N 32°07' W 081°08'0 0.0
2018-Jun-11 01:52N 32°07' W 081°08'0 0.0
2018-Jun-11 01:27N 32°07' W 081°08'0 0.0
2018-Jun-11 00:57N 32°07' W 081°08'0 0.0
2018-Jun-11 00:21N 32°07' W 081°08'0 0.0
2018-Jun-10 23:51N 32°07' W 081°08'0 0.0
2018-Jun-10 23:27N 32°07' W 081°08'0 0.0
2018-Jun-10 22:56N 32°07' W 081°08'0 0.0
2018-Jun-10 22:26N 32°07' W 081°08'0 0.0
2018-Jun-10 21:56N 32°07' W 081°08'0 0.0
2018-Jun-10 21:26N 32°07' W 081°08'0 0.0
2018-Jun-10 20:55N 32°07' W 081°08'0 0.0
2018-Jun-10 20:19N 32°07' W 081°08'0 0.0
2018-Jun-10 19:55N 32°07' W 081°08'0 0.0
2018-Jun-10 19:25N 32°07' W 081°08'0 0.0
2018-Jun-10 19:01N 32°07' W 081°08'0 0.0
2018-Jun-10 18:30N 32°07' W 081°08'0 0.8
2018-Jun-10 18:00N 32°08' W 081°08'3 5.2
2018-Jun-10 17:31N 32°06' W 081°06'3 5.3
2018-Jun-10 17:00N 32°05' W 081°03'4 8.2
2018-Jun-10 16:30N 32°04' W 080°59'5 9.2
2018-Jun-10 16:00N 32°02' W 080°54'612.3
2018-Jun-10 15:30N 31°60' W 080°47'713.7
2018-Jun-10 15:00N 31°57' W 080°40'510.6
2018-Jun-10 14:30N 31°56' W 080°34'1514.4
2018-Jun-10 13:28N 31°59' W 080°16'  
Track history (hours):
 
Tides and Currents Weather Stations Pressure Air Temp Water Temp Dewpoint Dewpoint Depression Visibility Wind Speed Wind Dir Waves Ship Positions

Cap Roberta

Last reported at 2018-Jun-19 14:46 UTC. Time now 2018-Jun-19 20:07 UTC.
Position N 09°37' W 080°05'.

Length 224 m; draft 10.1 m.

Type: Ship (hazmat cat A). MMSI: 636017361.

Date/timePositionNaut miles runAvg speedWind from/ knotsBaromVisibWave heightAir tempDewpointWater temp
2018-Jun-19 14:46N 09°37' W 080°05'518.9
2018-Jun-19 14:31N 09°36' W 080°00'919.0
2018-Jun-19 14:01N 09°28' W 079°54'612.5
2018-Jun-19 13:30N 09°22' W 079°53'1 1.5
2018-Jun-19 12:59N 09°22' W 079°53'0 0.0
2018-Jun-19 12:29N 09°22' W 079°53'0 0.0
2018-Jun-19 11:59N 09°22' W 079°53'0 0.0
2018-Jun-19 11:29N 09°22' W 079°53'0 0.0
2018-Jun-19 10:59N 09°22' W 079°53'0 0.0
2018-Jun-19 10:28N 09°22' W 079°53'0 0.0
2018-Jun-19 09:58N 09°22' W 079°53'0 0.0
2018-Jun-19 09:28N 09°22' W 079°53'0 0.0
2018-Jun-19 08:58N 09°22' W 079°53'0 0.0
2018-Jun-19 08:30N 09°22' W 079°53'0 0.0
2018-Jun-19 08:00N 09°22' W 079°53'0 0.0
2018-Jun-19 07:30N 09°22' W 079°53'0 0.0
2018-Jun-19 07:00N 09°22' W 079°53'0 0.0
2018-Jun-19 06:30N 09°22' W 079°53'0 0.0
2018-Jun-19 05:59N 09°22' W 079°53'0 0.0
2018-Jun-19 05:29N 09°22' W 079°53'0 0.0
2018-Jun-19 04:59N 09°22' W 079°53'0 0.0
2018-Jun-19 04:29N 09°22' W 079°53'0 0.0
2018-Jun-19 03:59N 09°22' W 079°53'0 0.0
2018-Jun-19 03:28N 09°22' W 079°53'0 0.0
2018-Jun-19 02:58N 09°22' W 079°53'0 0.0
2018-Jun-19 02:28N 09°22' W 079°53'0 0.0
2018-Jun-19 01:58N 09°22' W 079°53'0 0.0
2018-Jun-19 01:30N 09°22' W 079°53'0 0.0
2018-Jun-19 01:00N 09°22' W 079°53'0 0.0
2018-Jun-19 00:30N 09°22' W 079°53'0 0.0
2018-Jun-19 00:00N 09°22' W 079°53'0 0.0
2018-Jun-18 23:30N 09°22' W 079°53'0 0.0
2018-Jun-18 22:59N 09°22' W 079°53'0 0.0
2018-Jun-18 22:29N 09°22' W 079°53'0 0.0
2018-Jun-18 22:00N 09°22' W 079°53'0 0.0
2018-Jun-18 21:30N 09°22' W 079°53'0 0.0
2018-Jun-18 21:00N 09°22' W 079°53'0 0.0
2018-Jun-18 20:29N 09°22' W 079°53'0 0.0
2018-Jun-18 19:59N 09°22' W 079°53'0 0.0
2018-Jun-18 19:29N 09°22' W 079°53'0 0.0
2018-Jun-18 18:59N 09°22' W 079°53'0 0.0
2018-Jun-18 18:29N 09°22' W 079°53'0 0.0
2018-Jun-18 17:58N 09°22' W 079°53'0 0.0
2018-Jun-18 17:28N 09°22' W 079°53'0 0.0
2018-Jun-18 16:58N 09°22' W 079°53'0 0.0
2018-Jun-18 16:28N 09°22' W 079°53'0 0.0
2018-Jun-18 15:55N 09°22' W 079°53'0 0.0
2018-Jun-18 15:30N 09°22' W 079°53'0 0.0
2018-Jun-18 15:00N 09°22' W 079°53'0 0.0
2018-Jun-18 14:30N 09°22' W 079°53'0 0.0
2018-Jun-18 14:00N 09°22' W 079°53'0 0.0
2018-Jun-18 13:29N 09°22' W 079°53'0 0.0
2018-Jun-18 12:59N 09°22' W 079°53'0 0.0
2018-Jun-18 12:29N 09°22' W 079°53'0 0.0
2018-Jun-18 12:00N 09°22' W 079°53'1 2.7
2018-Jun-18 11:30N 09°23' W 079°54'3 6.0
2018-Jun-18 11:00N 09°26' W 079°54'2 3.2
2018-Jun-18 10:30N 09°27' W 079°54'2 4.1
2018-Jun-18 10:00N 09°28' W 079°52'1 1.5
2018-Jun-18 09:29N 09°29' W 079°53'4 7.5
2018-Jun-18 09:00N 09°32' W 079°53'  
2018-Jun-16 01:48N 10°12' W 075°55'514.9
2018-Jun-16 01:30N 10°14' W 075°51'714.3
2018-Jun-16 01:00N 10°17' W 075°45'  
2018-Jun-13 03:04N 25°29' W 079°36'511.7
2018-Jun-13 02:37N 25°34' W 079°37'211.4
2018-Jun-13 02:28N 25°36' W 079°37'511.1
2018-Jun-13 02:00N 25°41' W 079°38'611.1
2018-Jun-13 01:30N 25°47' W 079°38'511.0
2018-Jun-13 01:00N 25°52' W 079°39'613.1
2018-Jun-13 00:30N 25°56' W 079°44'918.8
2018-Jun-13 00:00N 25°60' W 079°54'1019.4
2018-Jun-12 23:30N 26°04' W 080°04'3 6.5
2018-Jun-12 23:00N 26°05' W 080°07'1 1.5
2018-Jun-12 22:24N 26°04' W 080°07'0 0.0
2018-Jun-12 21:54N 26°04' W 080°07'0 0.0
2018-Jun-12 21:30N 26°04' W 080°07'0 0.0
2018-Jun-12 20:59N 26°04' W 080°07'0 0.0
2018-Jun-12 20:26N 26°04' W 080°07'0 0.0
2018-Jun-12 19:56N 26°04' W 080°07'0 0.0
2018-Jun-12 19:29N 26°04' W 080°07'0 0.0
2018-Jun-12 18:59N 26°04' W 080°07'0 0.0
2018-Jun-12 18:28N 26°04' W 080°07'0 0.0
2018-Jun-12 17:55N 26°04' W 080°07'0 0.0
2018-Jun-12 17:22N 26°04' W 080°07'0 0.0
2018-Jun-12 16:49N 26°04' W 080°07'0 0.0
2018-Jun-12 16:30N 26°04' W 080°07'0 0.0
2018-Jun-12 15:57N 26°04' W 080°07'0 0.0
2018-Jun-12 15:24N 26°04' W 080°07'0 0.0
2018-Jun-12 14:48N 26°04' W 080°07'0 0.0
2018-Jun-12 14:30N 26°04' W 080°07'1 1.3
2018-Jun-12 14:00N 26°05' W 080°07'3 5.0
2018-Jun-12 13:30N 26°06' W 080°04'3 5.9
2018-Jun-12 13:00N 26°07' W 080°01'611.6
2018-Jun-12 12:30N 26°12' W 079°58'816.1
2018-Jun-12 12:00N 26°20' W 079°56'815.7
2018-Jun-12 11:30N 26°28' W 079°56'815.7
2018-Jun-12 11:00N 26°35' W 079°55'1016.8
2018-Jun-12 10:23N 26°46' W 079°55'716.8
2018-Jun-12 09:58N 26°53' W 079°55'816.5
2018-Jun-12 09:30N 27°00' W 079°54'29111.9
2018-Jun-11 09:09N 31°49' W 080°34'215.5
2018-Jun-11 09:00N 31°51' W 080°36'815.3
2018-Jun-11 08:29N 31°57' W 080°42'613.2
2018-Jun-11 08:01N 32°01' W 080°48'611.1
2018-Jun-11 07:30N 32°02' W 080°54'510.8
2018-Jun-11 07:00N 32°05' W 080°59'4 8.1
2018-Jun-11 06:30N 32°05' W 081°04'3 5.8
2018-Jun-11 06:00N 32°06' W 081°07'1 2.6
2018-Jun-11 05:29N 32°07' W 081°08'0 0.0
2018-Jun-11 04:59N 32°07' W 081°08'0 0.0
2018-Jun-11 04:29N 32°07' W 081°08'0 0.0
2018-Jun-11 03:58N 32°07' W 081°08'0 0.0
2018-Jun-11 03:28N 32°07' W 081°08'0 0.0
2018-Jun-11 02:58N 32°07' W 081°08'0 0.0
2018-Jun-11 02:22N 32°07' W 081°08'0 0.0
2018-Jun-11 01:52N 32°07' W 081°08'0 0.0
2018-Jun-11 01:27N 32°07' W 081°08'0 0.0
2018-Jun-11 00:57N 32°07' W 081°08'0 0.0
2018-Jun-11 00:21N 32°07' W 081°08'0 0.0
2018-Jun-10 23:51N 32°07' W 081°08'0 0.0
2018-Jun-10 23:27N 32°07' W 081°08'0 0.0
2018-Jun-10 22:56N 32°07' W 081°08'0 0.0
2018-Jun-10 22:26N 32°07' W 081°08'0 0.0
2018-Jun-10 21:56N 32°07' W 081°08'0 0.0
2018-Jun-10 21:26N 32°07' W 081°08'0 0.0
2018-Jun-10 20:55N 32°07' W 081°08'0 0.0
2018-Jun-10 20:19N 32°07' W 081°08'0 0.0
2018-Jun-10 19:55N 32°07' W 081°08'0 0.0
2018-Jun-10 19:25N 32°07' W 081°08'0 0.0
2018-Jun-10 19:01N 32°07' W 081°08'0 0.0
2018-Jun-10 18:30N 32°07' W 081°08'0 0.8
2018-Jun-10 18:00N 32°08' W 081°08'3 5.2
2018-Jun-10 17:31N 32°06' W 081°06'3 5.3
2018-Jun-10 17:00N 32°05' W 081°03'4 8.2
2018-Jun-10 16:30N 32°04' W 080°59'5 9.2
2018-Jun-10 16:00N 32°02' W 080°54'612.3
2018-Jun-10 15:30N 31°60' W 080°47'713.7
2018-Jun-10 15:00N 31°57' W 080°40'510.6
2018-Jun-10 14:30N 31°56' W 080°34'1514.4
2018-Jun-10 13:28N 31°59' W 080°16'  

Dump ship's entire track history